Time;durP1;ratioP1;P1;durP2;ratioP2;P2;SDS_P1;SDS_P2;PMS_P1;PMS_P2;Temp;Humidity;BMP_temperature;BMP_pressure;BME280_temperature;BME280_humidity;BME280_pressure;Samples;Min_cycle;Max_cycle;Signal;HPM_P1;HPM_P2
2020/12/10 00:00:09;;;;;;;10.68;5.18;;;2.20;99.90;;;;;;5016709;28;20044;-80
2020/12/10 00:02:35;;;;;;;9.40;4.68;;;2.30;99.90;;;;;;5034593;28;20488;-80
2020/12/10 00:05:01;;;;;;;9.48;5.13;;;2.30;99.90;;;;;;5036243;28;20040;-79
2020/12/10 00:07:27;;;;;;;7.70;4.65;;;2.30;99.90;;;;;;5035030;28;20045;-78
2020/12/10 00:09:54;;;;;;;7.43;4.53;;;2.20;99.90;;;;;;5018598;28;20048;-79
2020/12/10 00:12:20;;;;;;;9.77;5.40;;;2.20;99.90;;;;;;5015461;28;20456;-79
2020/12/10 00:14:46;;;;;;;9.07;4.68;;;2.10;99.90;;;;;;5016046;28;20550;-79
2020/12/10 00:17:13;;;;;;;9.18;5.35;;;2.10;99.90;;;;;;5035878;28;20079;-79
2020/12/10 00:19:39;;;;;;;9.38;5.05;;;2.20;99.90;;;;;;5018386;28;20030;-79
2020/12/10 00:22:06;;;;;;;9.60;5.57;;;2.20;99.90;;;;;;5049598;28;20057;-80
2020/12/10 00:24:32;;;;;;;10.90;5.78;;;2.20;99.90;;;;;;5012683;28;20500;-79
2020/12/10 00:26:58;;;;;;;10.10;5.97;;;2.30;99.90;;;;;;5018453;28;20040;-79
2020/12/10 00:29:24;;;;;;;11.35;5.57;;;2.30;99.90;;;;;;4984853;28;20048;-79
2020/12/10 00:31:49;;;;;;;10.65;5.03;;;2.10;99.90;;;;;;5012373;28;20605;-79
2020/12/10 00:34:15;;;;;;;7.70;4.38;;;2.10;99.90;;;;;;5036323;28;20067;-79
2020/12/10 00:36:41;;;;;;;8.73;5.20;;;2.10;99.90;;;;;;5015906;28;20061;-79
2020/12/10 00:39:06;;;;;;;8.80;5.28;;;2.10;99.90;;;;;;5017678;28;20476;-79
2020/12/10 00:41:32;;;;;;;6.97;4.47;;;2.10;99.90;;;;;;5018253;28;20449;-80
2020/12/10 00:43:58;;;;;;;9.65;4.50;;;2.10;99.90;;;;;;4982841;28;20052;-79
2020/12/10 00:46:24;;;;;;;8.90;4.82;;;2.10;99.90;;;;;;5017291;28;20097;-79
2020/12/10 00:48:49;;;;;;;9.07;4.47;;;2.10;99.90;;;;;;5000868;28;20030;-79
2020/12/10 00:51:15;;;;;;;9.23;5.07;;;2.10;99.90;;;;;;5017875;28;20080;-78
2020/12/10 00:53:42;;;;;;;8.38;4.70;;;2.20;99.90;;;;;;5001814;28;20033;-79
2020/12/10 00:56:08;;;;;;;7.95;4.45;;;2.20;99.90;;;;;;4999963;28;20538;-80
2020/12/10 00:58:33;;;;;;;8.95;4.82;;;2.10;99.90;;;;;;5017526;28;20037;-79
2020/12/10 01:00:59;;;;;;;10.13;5.50;;;2.20;99.90;;;;;;5035675;28;20049;-80
2020/12/10 01:03:25;;;;;;;7.15;4.28;;;2.20;99.90;;;;;;5018655;28;20029;-79
2020/12/10 01:05:50;;;;;;;8.07;4.47;;;2.10;99.90;;;;;;5019154;28;20065;-79
2020/12/10 01:08:16;;;;;;;10.38;4.78;;;2.10;99.90;;;;;;5035288;28;20037;-79
2020/12/10 01:10:42;;;;;;;8.38;4.80;;;2.10;99.90;;;;;;5016784;28;20034;-79
2020/12/10 01:13:08;;;;;;;9.27;4.60;;;2.10;99.90;;;;;;5035886;28;20033;-78
2020/12/10 01:15:33;;;;;;;7.07;4.28;;;2.10;99.90;;;;;;5032992;28;20026;-79
2020/12/10 01:17:59;;;;;;;9.63;5.18;;;2.10;99.90;;;;;;5036491;28;20087;-79
2020/12/10 01:20:25;;;;;;;9.85;4.88;;;2.20;99.90;;;;;;5038960;28;20391;-80
2020/12/10 01:22:50;;;;;;;10.25;5.40;;;2.10;99.90;;;;;;5022260;28;20039;-79
2020/12/10 01:25:16;;;;;;;8.13;4.38;;;2.10;99.90;;;;;;5006492;28;20053;-79
2020/12/10 01:27:42;;;;;;;12.20;5.68;;;2.10;99.90;;;;;;5015023;28;20029;-80
2020/12/10 01:30:08;;;;;;;8.60;4.60;;;2.20;99.90;;;;;;5039672;28;20036;-80
2020/12/10 01:32:34;;;;;;;9.45;4.82;;;2.10;99.90;;;;;;5020985;28;20030;-79
2020/12/10 01:35:00;;;;;;;9.52;5.15;;;2.10;99.90;;;;;;5038816;28;20030;-79
2020/12/10 01:37:26;;;;;;;10.48;5.20;;;2.10;99.90;;;;;;5036257;28;20445;-78
2020/12/10 01:39:51;;;;;;;10.88;5.20;;;2.10;99.90;;;;;;5036740;28;20041;-78
2020/12/10 01:42:18;;;;;;;9.35;4.55;;;2.00;99.90;;;;;;5036358;28;20030;-78
2020/12/10 01:44:44;;;;;;;9.73;4.65;;;2.00;99.90;;;;;;5037514;28;20472;-80
2020/12/10 01:47:10;;;;;;;8.95;4.45;;;2.10;99.90;;;;;;5036060;28;20036;-78
2020/12/10 01:49:38;;;;;;;9.48;5.18;;;2.10;99.90;;;;;;5037160;28;20037;-78
2020/12/10 01:52:05;;;;;;;9.02;5.07;;;2.10;99.90;;;;;;5002235;28;20373;-78
2020/12/10 01:54:33;;;;;;;9.52;4.85;;;2.10;99.90;;;;;;5037395;28;20033;-79
2020/12/10 01:56:59;;;;;;;8.57;4.63;;;2.10;99.90;;;;;;5035124;28;20026;-79
2020/12/10 01:59:25;;;;;;;8.32;4.65;;;2.00;99.90;;;;;;4997907;28;20040;-77
2020/12/10 02:01:50;;;;;;;10.43;5.63;;;2.00;99.90;;;;;;5011177;28;20492;-77
2020/12/10 02:04:34;;;;;;;8.38;4.65;;;2.00;99.90;;;;;;5035067;28;20033;-78
2020/12/10 02:07:01;;;;;;;9.63;5.10;;;2.00;99.90;;;;;;5041254;28;20029;-80
2020/12/10 02:09:27;;;;;;;11.10;5.13;;;2.20;99.90;;;;;;5040534;28;20120;-78
2020/12/10 02:11:53;;;;;;;8.55;4.95;;;2.20;99.90;;;;;;5042172;28;20049;-78
2020/12/10 02:14:20;;;;;;;11.63;4.43;;;2.10;99.90;;;;;;5023905;28;20037;-78
2020/12/10 02:16:52;;;;;;;10.13;5.07;;;2.10;99.90;;;;;;5031433;28;20457;-78
2020/12/10 02:19:17;;;;;;;12.18;5.10;;;2.10;99.90;;;;;;5030228;28;20369;-79
2020/12/10 02:21:43;;;;;;;8.95;4.88;;;2.10;99.90;;;;;;5013720;28;20084;-79
2020/12/10 02:24:12;;;;;;;10.07;5.00;;;2.00;99.90;;;;;;5016271;28;20052;-79
2020/12/10 02:26:37;;;;;;;9.00;4.63;;;2.00;99.90;;;;;;5000868;28;20084;-78
2020/12/10 02:29:03;;;;;;;8.93;4.32;;;2.00;99.90;;;;;;5016171;28;20022;-79
2020/12/10 02:31:31;;;;;;;9.40;4.28;;;2.00;99.90;;;;;;5034118;28;20380;-79
2020/12/10 02:33:59;;;;;;;7.78;4.53;;;1.90;99.90;;;;;;5035053;28;20034;-79
2020/12/10 02:36:25;;;;;;;7.68;4.50;;;1.90;99.90;;;;;;5013863;28;20022;-79
2020/12/10 02:38:51;;;;;;;5.47;3.58;;;1.90;99.90;;;;;;5016748;28;20040;-79
2020/12/10 02:41:17;;;;;;;10.68;4.95;;;1.90;99.90;;;;;;5035034;28;20037;-79
2020/12/10 02:43:43;;;;;;;9.05;4.50;;;1.90;99.90;;;;;;5035620;28;20030;-79
2020/12/10 02:46:08;;;;;;;6.10;3.50;;;1.90;99.90;;;;;;5017801;28;20044;-79
2020/12/10 02:48:34;;;;;;;5.90;3.80;;;1.90;99.90;;;;;;5033566;28;20049;-79
2020/12/10 02:51:01;;;;;;;5.88;3.78;;;2.00;99.90;;;;;;5013832;28;20423;-78
2020/12/10 02:53:28;;;;;;;9.27;4.60;;;2.00;99.90;;;;;;5034340;28;20048;-78
2020/12/10 02:55:54;;;;;;;8.57;4.38;;;2.10;99.90;;;;;;5014684;28;20145;-79
2020/12/10 02:58:21;;;;;;;7.63;3.67;;;2.10;99.90;;;;;;5034288;28;20100;-78
2020/12/10 03:00:46;;;;;;;7.22;3.45;;;2.10;99.90;;;;;;5034102;28;20080;-77
2020/12/10 03:03:12;;;;;;;6.47;3.53;;;2.10;99.90;;;;;;5034397;28;20041;-78
2020/12/10 03:05:38;;;;;;;8.15;3.88;;;2.00;99.90;;;;;;5016210;28;20065;-78
2020/12/10 03:08:04;;;;;;;8.20;3.80;;;2.00;99.90;;;;;;5028520;28;20112;-78
2020/12/10 03:10:31;;;;;;;6.22;3.47;;;1.90;99.90;;;;;;4997677;28;20126;-78
2020/12/10 03:12:56;;;;;;;7.95;4.13;;;1.90;99.90;;;;;;5034400;28;20037;-78
2020/12/10 03:15:22;;;;;;;10.43;4.38;;;1.90;99.90;;;;;;5034360;28;20028;-78
2020/12/10 03:17:49;;;;;;;8.27;3.83;;;1.90;99.90;;;;;;5016956;28;20021;-77
2020/12/10 03:20:16;;;;;;;7.03;3.83;;;2.00;99.90;;;;;;5034376;28;20026;-78
2020/12/10 03:22:41;;;;;;;7.95;4.05;;;2.00;99.90;;;;;;4999610;28;20034;-79
2020/12/10 03:25:07;;;;;;;7.03;3.92;;;2.00;99.90;;;;;;5016487;28;20497;-79
2020/12/10 03:27:33;;;;;;;9.18;4.63;;;1.90;99.90;;;;;;5015572;28;20090;-79
2020/12/10 03:29:59;;;;;;;6.97;3.85;;;1.90;99.90;;;;;;5034077;28;20495;-77
2020/12/10 03:32:25;;;;;;;6.18;3.72;;;1.90;99.90;;;;;;5033697;28;20094;-78
2020/12/10 03:34:50;;;;;;;6.10;3.10;;;1.80;99.90;;;;;;4999574;28;20037;-80
2020/12/10 03:37:16;;;;;;;8.07;3.78;;;1.80;99.90;;;;;;5015208;28;20025;-79
2020/12/10 03:39:42;;;;;;;6.07;3.65;;;1.80;99.90;;;;;;4999809;28;20033;-78
2020/12/10 03:42:08;;;;;;;6.15;3.53;;;1.80;99.90;;;;;;5033198;28;20025;-77
2020/12/10 03:44:33;;;;;;;8.30;4.43;;;1.90;99.90;;;;;;5034176;28;20065;-78
2020/12/10 03:46:59;;;;;;;11.60;4.47;;;1.90;99.90;;;;;;4998785;28;20041;-78
2020/12/10 03:49:25;;;;;;;6.38;3.78;;;1.90;99.90;;;;;;5015924;28;20039;-79
2020/12/10 03:51:51;;;;;;;8.50;4.22;;;1.90;99.90;;;;;;5015777;28;20112;-78
2020/12/10 03:54:16;;;;;;;8.70;4.07;;;1.80;99.90;;;;;;5016118;28;20041;-77
2020/12/10 03:56:42;;;;;;;8.10;4.05;;;1.80;99.90;;;;;;5030894;28;20041;-77
2020/12/10 03:59:08;;;;;;;7.75;3.88;;;1.80;99.90;;;;;;5033512;28;20035;-77
2020/12/10 04:01:35;;;;;;;5.35;3.58;;;1.80;99.90;;;;;;5015101;28;20033;-79
2020/12/10 04:04:00;;;;;;;4.68;2.88;;;1.80;99.90;;;;;;5028334;28;20522;-77
2020/12/10 04:06:27;;;;;;;5.53;3.45;;;1.80;99.90;;;;;;4996491;28;20116;-79
2020/12/10 04:08:53;;;;;;;7.70;3.58;;;1.80;99.90;;;;;;5031739;28;20057;-77
2020/12/10 04:11:19;;;;;;;7.75;3.75;;;1.80;99.90;;;;;;5032825;28;20084;-77
2020/12/10 04:13:45;;;;;;;7.82;3.88;;;1.80;99.90;;;;;;5032908;28;20091;-79
2020/12/10 04:16:11;;;;;;;6.75;3.67;;;1.80;99.90;;;;;;5031957;28;20097;-77
2020/12/10 04:18:39;;;;;;;6.00;3.65;;;1.90;99.90;;;;;;5032239;28;20437;-77
2020/12/10 04:21:10;;;;;;;6.63;3.55;;;1.80;99.90;;;;;;5032491;28;20038;-79
2020/12/10 04:23:37;;;;;;;7.45;3.72;;;1.80;99.90;;;;;;5032898;28;20519;-77
2020/12/10 04:26:03;;;;;;;5.60;3.50;;;1.80;99.90;;;;;;5015435;28;20535;-77
2020/12/10 04:28:29;;;;;;;7.20;3.95;;;1.90;99.90;;;;;;5031924;28;20028;-77
2020/12/10 04:30:54;;;;;;;6.22;3.60;;;1.80;99.90;;;;;;5028578;28;20033;-78
2020/12/10 04:33:21;;;;;;;7.43;3.72;;;1.80;99.90;;;;;;4979242;28;20080;-78
2020/12/10 04:35:46;;;;;;;6.68;3.55;;;1.80;99.90;;;;;;5019002;28;20021;-77
2020/12/10 04:38:12;;;;;;;6.50;3.92;;;1.80;99.90;;;;;;5032434;28;20091;-77
2020/12/10 04:40:38;;;;;;;6.15;3.50;;;1.80;99.90;;;;;;5020684;28;20030;-78
2020/12/10 04:43:06;;;;;;;8.90;4.22;;;1.80;99.90;;;;;;4995357;28;20044;-77
2020/12/10 04:45:32;;;;;;;7.95;3.75;;;1.70;99.90;;;;;;4998690;28;20030;-77
2020/12/10 04:47:59;;;;;;;8.13;4.20;;;1.80;99.90;;;;;;5022326;28;20032;-77
2020/12/10 04:50:26;;;;;;;6.07;3.63;;;1.70;99.90;;;;;;5032897;28;20021;-77
2020/12/10 04:52:53;;;;;;;5.70;3.67;;;1.70;99.90;;;;;;5032982;28;20041;-77
2020/12/10 04:55:22;;;;;;;7.20;3.88;;;1.70;99.90;;;;;;5029559;28;20387;-77
2020/12/10 04:57:51;;;;;;;6.18;3.35;;;1.70;99.90;;;;;;5025436;28;20026;-77
2020/12/10 05:00:18;;;;;;;7.55;3.40;;;1.70;99.90;;;;;;5023815;28;20045;-78
2020/12/10 05:02:47;;;;;;;7.15;3.65;;;1.70;99.90;;;;;;5032886;28;20030;-78
2020/12/10 05:05:33;;;;;;;6.70;3.22;;;1.70;99.90;;;;;;5033160;28;20037;-79
2020/12/10 05:08:03;;;;;;;7.05;3.85;;;1.70;99.90;;;;;;5030839;28;20022;-77
2020/12/10 05:10:32;;;;;;;6.80;3.78;;;1.70;99.90;;;;;;5032493;28;20034;-77
2020/12/10 05:13:06;;;;;;;6.15;3.70;;;1.70;99.90;;;;;;5032737;28;20099;-77
2020/12/10 05:15:33;;;;;;;8.13;3.80;;;1.70;99.90;;;;;;5031760;28;20094;-77
2020/12/10 05:18:09;;;;;;;5.88;3.17;;;1.70;99.90;;;;;;5032501;28;20030;-77
2020/12/10 05:20:51;;;;;;;4.90;3.08;;;1.70;99.90;;;;;;5032610;28;20468;-77
2020/12/10 05:23:32;;;;;;;4.07;2.85;;;1.70;99.90;;;;;;5033198;28;20434;-77
2020/12/10 05:26:01;;;;;;;5.30;3.22;;;1.60;99.90;;;;;;5033526;28;20037;-77
2020/12/10 05:28:37;;;;;;;6.72;3.22;;;1.70;99.90;;;;;;5032196;28;20037;-77
2020/12/10 05:31:05;;;;;;;5.63;3.60;;;1.60;99.90;;;;;;5018083;28;20085;-77
2020/12/10 05:33:31;;;;;;;6.00;3.20;;;1.70;99.90;;;;;;5015487;28;20038;-77
2020/12/10 05:36:08;;;;;;;6.10;3.50;;;1.70;99.90;;;;;;5031176;28;20032;-77
2020/12/10 05:38:34;;;;;;;6.63;3.50;;;1.60;99.90;;;;;;5033135;28;20041;-77
2020/12/10 05:41:18;;;;;;;5.22;3.40;;;1.60;99.90;;;;;;5012502;28;20128;-78
2020/12/10 05:43:43;;;;;;;5.53;3.17;;;1.60;99.90;;;;;;5013639;28;20034;-77
2020/12/10 05:46:35;;;;;;;5.47;3.28;;;1.60;99.90;;;;;;4997120;28;20048;-77
2020/12/10 05:49:01;;;;;;;5.53;2.97;;;1.60;99.90;;;;;;5004679;28;20041;-77
2020/12/10 05:51:32;;;;;;;6.07;3.05;;;1.60;99.90;;;;;;4997130;28;20037;-78
2020/12/10 05:54:00;;;;;;;4.65;2.80;;;1.50;99.90;;;;;;4981733;28;20087;-78
2020/12/10 05:56:33;;;;;;;6.05;3.28;;;1.60;99.90;;;;;;5009168;28;20480;-78
2020/12/10 05:59:00;;;;;;;6.45;3.40;;;1.60;99.90;;;;;;5013096;28;20084;-77
2020/12/10 06:01:33;;;;;;;6.00;3.22;;;1.60;99.90;;;;;;4993651;28;20116;-78
2020/12/10 06:04:00;;;;;;;5.32;3.30;;;1.60;99.90;;;;;;4998561;28;20038;-77
2020/12/10 06:06:30;;;;;;;5.35;3.45;;;1.60;99.90;;;;;;5032066;28;20034;-77
2020/12/10 06:09:04;;;;;;;5.88;3.40;;;1.60;99.90;;;;;;5029882;28;20021;-78
2020/12/10 06:11:32;;;;;;;8.23;3.78;;;1.50;99.90;;;;;;5034429;28;20033;-79
2020/12/10 06:14:06;;;;;;;7.00;3.67;;;1.60;99.90;;;;;;5017002;28;20036;-78
2020/12/10 06:16:34;;;;;;;7.20;3.30;;;1.60;99.90;;;;;;5033356;28;20033;-77
2020/12/10 06:19:03;;;;;;;7.28;3.58;;;1.60;99.90;;;;;;5013226;28;20099;-78
2020/12/10 06:21:42;;;;;;;6.22;3.50;;;1.60;99.90;;;;;;5013391;28;20036;-78
2020/12/10 06:24:26;;;;;;;6.88;3.42;;;1.60;99.90;;;;;;5007741;28;20468;-77
2020/12/10 06:26:56;;;;;;;9.25;4.30;;;1.60;99.90;;;;;;5015134;28;20108;-78
2020/12/10 06:29:26;;;;;;;6.03;3.78;;;1.60;99.90;;;;;;5016501;28;20041;-77
2020/12/10 06:32:17;;;;;;;6.88;3.20;;;1.60;99.90;;;;;;5014864;28;20068;-78
2020/12/10 06:34:55;;;;;;;5.80;3.58;;;1.60;99.90;;;;;;5032202;28;20057;-77
2020/12/10 06:37:28;;;;;;;7.60;3.70;;;1.60;99.90;;;;;;4999750;28;20534;-77
2020/12/10 06:40:03;;;;;;;7.35;3.80;;;1.60;99.90;;;;;;5032587;28;20033;-78
2020/12/10 06:42:46;;;;;;;7.70;4.13;;;1.60;99.90;;;;;;5014319;28;20029;-78
2020/12/10 06:45:24;;;;;;;8.07;3.70;;;1.60;99.90;;;;;;4988535;28;20029;-77
2020/12/10 06:47:50;;;;;;;6.78;3.60;;;1.60;99.90;;;;;;5015244;28;20117;-77
2020/12/10 06:50:30;;;;;;;7.78;3.67;;;1.60;99.90;;;;;;5028626;28;20444;-77
2020/12/10 06:53:12;;;;;;;8.73;4.00;;;1.60;99.90;;;;;;5013763;28;20060;-78
2020/12/10 06:58:44;;;;;;;9.50;4.15;;;1.70;99.90;;;;;;5015153;28;20507;-77
2020/12/10 07:01:39;;;;;;;7.35;3.97;;;1.70;99.90;;;;;;4991009;28;20851;-78
2020/12/10 07:04:13;;;;;;;13.02;4.75;;;1.60;99.90;;;;;;5019237;28;20071;-78
2020/12/10 07:06:39;;;;;;;10.88;4.47;;;1.60;99.90;;;;;;5000044;28;20479;-78
2020/12/10 07:09:09;;;;;;;7.88;3.78;;;1.60;99.90;;;;;;5015885;28;20112;-77
2020/12/10 07:11:37;;;;;;;7.28;3.53;;;1.60;99.90;;;;;;5027748;28;20041;-77
2020/12/10 07:14:31;;;;;;;9.85;3.78;;;1.60;99.90;;;;;;5007466;28;20468;-78
2020/12/10 07:16:56;;;;;;;13.00;4.13;;;1.60;99.90;;;;;;5020549;28;20033;-79
2020/12/10 07:19:23;;;;;;;12.57;4.57;;;1.60;99.90;;;;;;5003134;28;20040;-79
2020/12/10 07:21:49;;;;;;;9.70;4.05;;;1.60;99.90;;;;;;5034694;28;20025;-78
2020/12/10 07:24:15;;;;;;;10.20;4.40;;;1.60;99.90;;;;;;5037490;28;20529;-79
2020/12/10 07:26:42;;;;;;;7.07;3.60;;;1.60;99.90;;;;;;5037978;28;20026;-78
2020/12/10 07:29:08;;;;;;;7.30;3.95;;;1.60;99.90;;;;;;5037660;28;20065;-79
2020/12/10 07:31:34;;;;;;;12.07;4.10;;;1.60;99.90;;;;;;5032756;28;20032;-78
2020/12/10 07:34:00;;;;;;;8.65;3.67;;;1.60;99.90;;;;;;5019664;28;20128;-79
2020/12/10 07:36:27;;;;;;;10.48;4.30;;;1.60;99.90;;;;;;5036798;28;20025;-78
2020/12/10 07:38:53;;;;;;;9.18;3.60;;;1.60;99.90;;;;;;5036715;28;20052;-79
2020/12/10 07:41:19;;;;;;;8.55;4.53;;;1.60;99.90;;;;;;5008771;28;20034;-78
2020/12/10 07:43:53;;;;;;;10.40;4.28;;;1.60;99.90;;;;;;5035453;28;20040;-79
2020/12/10 07:46:19;;;;;;;7.07;3.63;;;1.60;99.90;;;;;;5018561;28;20029;-78
2020/12/10 07:48:49;;;;;;;8.02;4.05;;;1.60;99.90;;;;;;5036723;28;20049;-78
2020/12/10 07:51:22;;;;;;;7.53;4.03;;;1.60;99.90;;;;;;5033817;28;20091;-77
2020/12/10 07:53:48;;;;;;;6.85;3.05;;;1.60;99.90;;;;;;5037190;28;20033;-79
2020/12/10 07:56:27;;;;;;;8.70;3.80;;;1.60;99.90;;;;;;5033303;28;20464;-76
2020/12/10 07:59:10;;;;;;;8.35;3.97;;;1.70;99.90;;;;;;5024197;28;20522;-78
2020/12/10 08:01:41;;;;;;;11.45;4.60;;;1.70;99.90;;;;;;5033942;28;20029;-79
2020/12/10 08:04:15;;;;;;;11.68;4.38;;;1.70;99.90;;;;;;5037479;28;20451;-78
2020/12/10 08:06:42;;;;;;;7.22;3.53;;;1.70;99.90;;;;;;5019571;28;20029;-77
2020/12/10 08:09:10;;;;;;;9.90;4.20;;;1.70;99.90;;;;;;5035747;28;20033;-78
2020/12/10 08:11:48;;;;;;;10.45;4.68;;;1.70;99.90;;;;;;5016424;28;20045;-78
2020/12/10 08:14:14;;;;;;;5.88;3.35;;;1.80;99.90;;;;;;5037568;28;20040;-79
2020/12/10 08:16:44;;;;;;;7.97;3.50;;;1.80;99.90;;;;;;5000673;28;20037;-78
2020/12/10 08:19:14;;;;;;;10.02;4.30;;;1.80;99.90;;;;;;5020481;28;20049;-79
2020/12/10 08:21:41;;;;;;;7.28;4.15;;;1.80;99.90;;;;;;5006953;28;20399;-78
2020/12/10 08:24:06;;;;;;;7.07;3.42;;;1.80;99.90;;;;;;4999223;28;20030;-78
2020/12/10 08:26:32;;;;;;;9.68;4.50;;;1.80;99.90;;;;;;5031710;28;20034;-77
2020/12/10 08:28:58;;;;;;;11.80;4.15;;;1.80;99.90;;;;;;5001844;28;20039;-79
2020/12/10 08:31:26;;;;;;;11.25;4.95;;;1.70;99.90;;;;;;4994389;28;20523;-76
2020/12/10 08:33:52;;;;;;;8.98;4.00;;;1.70;99.90;;;;;;5033740;28;20030;-77
2020/12/10 08:36:27;;;;;;;8.23;4.18;;;1.80;99.90;;;;;;5019457;28;20036;-78
2020/12/10 08:38:54;;;;;;;7.47;4.20;;;1.70;99.90;;;;;;5015492;28;20043;-79
2020/12/10 08:41:26;;;;;;;9.75;4.20;;;1.80;99.90;;;;;;5033241;28;20060;-76
2020/12/10 08:43:56;;;;;;;7.32;4.20;;;1.80;99.90;;;;;;5014953;28;20033;-78
2020/12/10 08:46:22;;;;;;;9.75;4.50;;;1.90;99.90;;;;;;5011403;28;20392;-78
2020/12/10 08:48:48;;;;;;;8.43;4.32;;;1.80;99.90;;;;;;5016312;28;20034;-78
2020/12/10 08:51:14;;;;;;;9.02;4.38;;;1.90;99.90;;;;;;4998965;28;20046;-77
2020/12/10 08:53:47;;;;;;;8.80;4.38;;;1.90;99.90;;;;;;5000436;28;20042;-79
2020/12/10 08:56:21;;;;;;;9.30;4.03;;;1.90;99.90;;;;;;5034820;28;20430;-78
2020/12/10 08:58:48;;;;;;;8.07;4.10;;;2.00;99.90;;;;;;5034878;28;20044;-78
2020/12/10 09:01:13;;;;;;;9.07;4.20;;;2.00;99.90;;;;;;5029942;28;20033;-78
2020/12/10 09:03:39;;;;;;;8.63;4.70;;;2.10;99.90;;;;;;5005217;28;20048;-78
2020/12/10 09:06:05;;;;;;;9.68;4.00;;;2.10;99.90;;;;;;5035122;28;20034;-77
2020/12/10 09:08:31;;;;;;;7.15;3.95;;;2.10;99.90;;;;;;5000912;28;20040;-76
2020/12/10 09:10:56;;;;;;;8.55;4.13;;;2.10;99.90;;;;;;5013196;28;20037;-77
2020/12/10 09:13:25;;;;;;;7.55;4.07;;;2.20;99.90;;;;;;5034363;28;20029;-78
2020/12/10 09:15:52;;;;;;;8.73;4.15;;;2.10;99.90;;;;;;5017008;28;20037;-78
2020/12/10 09:18:17;;;;;;;11.35;4.03;;;2.20;99.90;;;;;;5024523;28;20034;-78
2020/12/10 09:20:43;;;;;;;6.70;3.80;;;2.20;99.90;;;;;;4987246;28;20041;-76
2020/12/10 09:23:10;;;;;;;8.52;3.53;;;2.20;99.90;;;;;;4980634;28;20076;-77
2020/12/10 09:25:36;;;;;;;11.07;4.07;;;2.20;99.90;;;;;;5007401;28;20426;-82
2020/12/10 09:28:01;;;;;;;8.38;3.83;;;2.20;99.90;;;;;;4994545;28;20032;-80
2020/12/10 09:30:28;;;;;;;6.35;3.85;;;2.20;99.90;;;;;;5009115;28;20763;-81
2020/12/10 09:32:53;;;;;;;9.57;4.45;;;2.20;99.90;;;;;;4994528;28;20060;-78
2020/12/10 09:35:19;;;;;;;8.88;4.00;;;2.20;99.90;;;;;;5032204;28;20492;-79
2020/12/10 09:37:45;;;;;;;10.48;3.95;;;2.20;99.90;;;;;;5013473;28;20030;-78
2020/12/10 09:40:12;;;;;;;7.35;3.55;;;2.20;99.90;;;;;;5011240;28;20033;-78
2020/12/10 09:42:39;;;;;;;6.53;3.90;;;2.20;99.90;;;;;;5033585;28;20037;-78
2020/12/10 09:45:05;;;;;;;5.82;3.20;;;2.20;99.90;;;;;;4980696;28;20030;-80
2020/12/10 09:47:31;;;;;;;9.60;4.28;;;2.20;99.90;;;;;;5013606;28;20040;-79
2020/12/10 09:49:56;;;;;;;9.65;4.03;;;2.20;99.90;;;;;;5013601;28;20291;-78
2020/12/10 09:52:23;;;;;;;8.90;4.25;;;2.20;99.90;;;;;;5016386;28;20116;-78
2020/12/10 09:54:58;;;;;;;7.97;4.00;;;2.20;99.90;;;;;;5000141;28;20045;-78
2020/12/10 09:57:29;;;;;;;9.65;4.00;;;2.30;99.90;;;;;;4996341;28;20029;-77
2020/12/10 10:00:00;;;;;;;7.38;4.30;;;2.30;99.90;;;;;;4998963;28;20030;-79
2020/12/10 10:02:26;;;;;;;9.48;4.40;;;2.20;99.90;;;;;;5016333;28;20080;-78
2020/12/10 10:04:52;;;;;;;9.32;4.78;;;2.20;99.90;;;;;;4998348;28;20034;-79
2020/12/10 10:07:18;;;;;;;7.05;3.50;;;2.20;99.90;;;;;;5033062;28;20758;-78
2020/12/10 10:09:44;;;;;;;7.10;4.22;;;2.20;99.90;;;;;;5034859;28;20494;-79
2020/12/10 10:12:10;;;;;;;9.90;4.70;;;2.20;99.90;;;;;;5000243;28;20033;-80
2020/12/10 10:14:37;;;;;;;8.68;3.88;;;2.20;99.90;;;;;;5017601;28;20061;-78
2020/12/10 10:17:07;;;;;;;6.78;3.80;;;2.30;99.90;;;;;;5001831;28;20022;-79
2020/12/10 10:19:33;;;;;;;9.57;3.85;;;2.30;99.90;;;;;;5015612;28;20030;-79
2020/12/10 10:21:58;;;;;;;8.32;3.85;;;2.30;99.90;;;;;;5013177;28;20033;-79
2020/12/10 10:24:25;;;;;;;7.88;3.88;;;2.30;99.90;;;;;;5004563;28;20034;-79
2020/12/10 10:26:51;;;;;;;7.03;3.17;;;2.40;99.90;;;;;;5020592;28;20034;-79
2020/12/10 10:29:21;;;;;;;6.57;3.85;;;2.40;99.90;;;;;;5020996;28;20063;-80
2020/12/10 10:31:50;;;;;;;6.70;3.97;;;2.50;99.90;;;;;;5037090;28;20030;-80
2020/12/10 10:34:17;;;;;;;7.68;4.03;;;2.50;99.90;;;;;;5003363;28;20536;-79
2020/12/10 10:36:42;;;;;;;7.97;4.22;;;2.50;99.90;;;;;;5020263;28;20048;-79
2020/12/10 10:39:09;;;;;;;7.93;4.07;;;2.50;99.90;;;;;;4991433;28;20037;-79
2020/12/10 10:41:46;;;;;;;8.50;4.35;;;2.50;99.90;;;;;;5018739;28;20495;-78
2020/12/10 10:44:12;;;;;;;7.88;4.45;;;2.50;99.90;;;;;;5020865;28;20033;-78
2020/12/10 10:46:38;;;;;;;7.82;4.38;;;2.60;99.90;;;;;;5003600;28;20029;-79
2020/12/10 10:49:04;;;;;;;7.25;4.13;;;2.50;99.90;;;;;;5004449;28;20545;-78
2020/12/10 10:51:30;;;;;;;9.02;3.78;;;2.50;99.90;;;;;;4987241;28;20034;-78
2020/12/10 10:53:56;;;;;;;7.53;3.88;;;2.50;99.90;;;;;;5037590;28;20025;-78
2020/12/10 10:56:23;;;;;;;6.43;3.88;;;2.60;99.90;;;;;;5038940;28;20029;-77
2020/12/10 10:58:49;;;;;;;7.10;4.07;;;2.50;99.90;;;;;;5019218;28;20030;-77
2020/12/10 11:01:16;;;;;;;5.65;3.33;;;2.50;99.90;;;;;;5001565;28;20030;-79
2020/12/10 11:03:42;;;;;;;6.72;3.45;;;2.50;99.90;;;;;;5018284;28;20113;-79
2020/12/10 11:06:08;;;;;;;7.47;3.75;;;2.50;99.90;;;;;;5034255;28;20080;-77
2020/12/10 11:08:34;;;;;;;10.45;4.30;;;2.50;99.90;;;;;;5018017;28;20032;-78
2020/12/10 11:11:00;;;;;;;7.63;4.40;;;2.50;99.90;;;;;;4997691;28;20030;-79
2020/12/10 11:13:26;;;;;;;8.93;4.50;;;2.50;99.90;;;;;;5029214;28;20039;-77
2020/12/10 11:15:51;;;;;;;7.00;3.85;;;2.50;99.90;;;;;;5038798;28;20021;-79
2020/12/10 11:18:17;;;;;;;7.68;4.20;;;2.50;99.90;;;;;;4985408;28;20077;-78
2020/12/10 11:20:43;;;;;;;8.15;4.60;;;2.50;99.90;;;;;;4993217;28;20033;-77
2020/12/10 11:23:09;;;;;;;7.95;3.78;;;2.50;99.90;;;;;;5015204;28;20029;-77
2020/12/10 11:25:34;;;;;;;6.80;3.90;;;2.60;99.90;;;;;;5015888;28;20033;-77
2020/12/10 11:28:00;;;;;;;6.13;3.70;;;2.60;99.90;;;;;;4996096;28;20030;-78
2020/12/10 11:30:26;;;;;;;8.52;4.07;;;2.60;99.90;;;;;;5021171;28;20033;-77
2020/12/10 11:32:51;;;;;;;5.50;3.50;;;2.60;99.90;;;;;;5032413;28;20084;-77
2020/12/10 11:35:17;;;;;;;5.43;3.70;;;2.60;99.90;;;;;;5015429;28;20099;-77
2020/12/10 11:37:43;;;;;;;5.45;3.58;;;2.60;99.90;;;;;;5016136;28;20061;-78
2020/12/10 11:40:09;;;;;;;7.65;4.07;;;2.60;99.90;;;;;;5001157;23;20048;-75
2020/12/10 11:42:34;;;;;;;7.32;3.92;;;2.60;99.90;;;;;;5008573;28;20022;-77
2020/12/10 11:45:03;;;;;;;5.93;3.58;;;2.70;99.90;;;;;;5013050;28;20438;-78
2020/12/10 11:47:29;;;;;;;5.82;3.85;;;2.70;99.90;;;;;;4994811;28;20065;-76
2020/12/10 11:49:55;;;;;;;7.03;4.20;;;2.70;99.90;;;;;;4982991;28;20061;-78
2020/12/10 11:52:21;;;;;;;8.43;4.82;;;2.70;99.90;;;;;;4988142;28;20030;-77
2020/12/10 11:54:46;;;;;;;7.53;4.40;;;2.70;99.90;;;;;;4994244;28;20031;-78
2020/12/10 11:57:12;;;;;;;6.40;4.05;;;2.80;99.90;;;;;;4987208;28;20051;-77
2020/12/10 11:59:38;;;;;;;9.65;4.75;;;2.70;99.90;;;;;;4986492;28;20054;-77
2020/12/10 12:02:07;;;;;;;6.60;4.13;;;2.80;99.90;;;;;;4964587;28;20030;-77
2020/12/10 12:04:33;;;;;;;5.85;3.55;;;2.70;99.90;;;;;;4989507;28;20096;-77
2020/12/10 12:07:01;;;;;;;7.28;4.25;;;2.80;99.90;;;;;;4992167;28;20038;-77
2020/12/10 12:09:27;;;;;;;7.80;4.43;;;2.80;99.90;;;;;;4990847;28;20468;-77
2020/12/10 12:11:53;;;;;;;6.72;3.72;;;2.70;99.90;;;;;;4970310;28;20037;-77
2020/12/10 12:14:18;;;;;;;6.40;3.88;;;2.70;99.90;;;;;;4982472;28;20039;-77
2020/12/10 12:16:47;;;;;;;6.13;3.63;;;2.70;99.90;;;;;;4973111;28;20030;-77
2020/12/10 12:19:13;;;;;;;6.38;3.67;;;2.70;99.90;;;;;;4986908;28;20030;-77
2020/12/10 12:21:39;;;;;;;7.60;3.72;;;2.70;99.90;;;;;;4984475;28;20125;-77
2020/12/10 12:24:05;;;;;;;7.80;3.80;;;2.80;99.90;;;;;;4981577;28;20030;-77
2020/12/10 12:26:32;;;;;;;7.90;3.67;;;2.80;99.90;;;;;;4991202;28;20102;-77
2020/12/10 12:28:59;;;;;;;8.05;4.00;;;2.80;99.90;;;;;;4969637;28;20041;-76
2020/12/10 12:31:32;;;;;;;7.70;3.97;;;2.80;99.90;;;;;;4971604;28;20464;-77
2020/12/10 12:33:58;;;;;;;7.78;3.78;;;2.80;99.90;;;;;;4958482;28;20041;-76
2020/12/10 12:36:24;;;;;;;8.02;4.00;;;2.80;99.90;;;;;;4987536;28;20026;-76
2020/12/10 12:38:49;;;;;;;5.90;3.67;;;2.70;99.90;;;;;;4970348;28;20022;-76
2020/12/10 12:41:16;;;;;;;7.18;3.80;;;2.80;99.90;;;;;;4979668;28;20030;-76
2020/12/10 12:43:42;;;;;;;9.15;4.45;;;2.70;99.90;;;;;;4985860;28;20049;-75
2020/12/10 12:46:08;;;;;;;6.45;3.70;;;2.80;99.90;;;;;;4983345;28;20050;-76
2020/12/10 12:48:35;;;;;;;6.65;3.65;;;2.80;99.90;;;;;;4952180;28;20043;-77
2020/12/10 12:51:01;;;;;;;8.85;3.75;;;2.80;99.90;;;;;;4958179;28;20078;-76
2020/12/10 12:53:27;;;;;;;9.93;4.70;;;2.80;99.90;;;;;;4985956;28;20033;-76
2020/12/10 12:55:53;;;;;;;8.57;4.38;;;2.80;99.90;;;;;;4988375;28;20030;-76
2020/12/10 12:58:18;;;;;;;7.95;3.90;;;2.80;99.90;;;;;;4987218;28;20035;-77
2020/12/10 13:00:44;;;;;;;9.02;4.35;;;2.70;99.90;;;;;;4949561;28;20035;-77